Time;durP1;ratioP1;P1;durP2;ratioP2;P2;SDS_P1;SDS_P2;PMS_P1;PMS_P2;Temp;Humidity;BMP_temperature;BMP_pressure;BME280_temperature;BME280_humidity;BME280_pressure;Samples;Min_cycle;Max_cycle;Signal;HPM_P1;HPM_P2
2023/06/14 00:01:16;;;;;;;11.70;7.70;;;;;;;;;;5081707;28;20398;-80
2023/06/14 00:03:42;;;;;;;8.70;7.25;;;;;;;;;;5084014;28;20604;-77
2023/06/14 00:06:07;;;;;;;8.18;6.55;;;;;;;;;;5083153;28;20101;-78
2023/06/14 00:08:33;;;;;;;9.07;6.55;;;;;;;;;;5079198;28;20028;-78
2023/06/14 00:10:58;;;;;;;10.98;7.00;;;;;;;;;;5073992;28;20039;-77
2023/06/14 00:13:24;;;;;;;11.20;7.03;;;;;;;;;;5081770;28;20043;-79
2023/06/14 00:15:49;;;;;;;8.50;6.75;;;;;;;;;;5079894;28;20032;-78
2023/06/14 00:18:14;;;;;;;11.95;6.80;;;;;;;;;;5083412;28;20043;-81
2023/06/14 00:20:42;;;;;;;9.90;6.85;;;;;;;;;;5083149;28;20027;-77
2023/06/14 00:23:08;;;;;;;10.20;6.93;;;;;;;;;;5080290;28;20111;-79
2023/06/14 00:25:33;;;;;;;12.55;6.53;;;;;;;;;;5074290;28;20914;-83
2023/06/14 00:27:58;;;;;;;12.82;6.80;;;;;;;;;;5081585;28;20088;-77
2023/06/14 00:30:24;;;;;;;10.52;6.53;;;;;;;;;;5081889;28;20039;-78
2023/06/14 00:32:49;;;;;;;12.40;6.40;;;;;;;;;;5082591;28;20085;-82
2023/06/14 00:35:15;;;;;;;10.68;6.43;;;;;;;;;;5083630;28;20074;-78
2023/06/14 00:37:40;;;;;;;9.65;7.25;;;;;;;;;;5082773;28;20027;-79
2023/06/14 00:40:06;;;;;;;8.93;6.82;;;;;;;;;;5082097;28;20365;-78
2023/06/14 00:42:32;;;;;;;15.73;9.38;;;;;;;;;;5081430;28;20031;-77
2023/06/14 00:44:57;;;;;;;17.15;11.50;;;;;;;;;;5083282;28;20439;-77
2023/06/14 00:47:23;;;;;;;23.02;12.48;;;;;;;;;;5083139;28;20047;-78
2023/06/14 00:49:49;;;;;;;17.08;11.43;;;;;;;;;;5073825;28;20035;-81
2023/06/14 00:52:15;;;;;;;17.08;11.57;;;;;;;;;;5081210;28;20024;-80
2023/06/14 00:54:41;;;;;;;20.35;10.88;;;;;;;;;;5082023;28;20024;-80
2023/06/14 00:57:07;;;;;;;26.42;11.23;;;;;;;;;;5083683;28;20028;-79
2023/06/14 00:59:33;;;;;;;15.80;11.30;;;;;;;;;;5074366;28;20074;-77
2023/06/14 01:01:58;;;;;;;19.63;11.10;;;;;;;;;;5080766;28;20076;-78
2023/06/14 01:04:24;;;;;;;24.50;10.30;;;;;;;;;;5073543;28;20699;-80
2023/06/14 01:06:50;;;;;;;32.75;11.00;;;;;;;;;;5080272;28;20028;-82
2023/06/14 01:09:27;;;;;;;22.27;10.35;;;;;;;;;;5080652;28;20020;-79
2023/06/14 01:12:04;;;;;;;19.42;10.68;;;;;;;;;;5073848;28;20461;-78
2023/06/14 01:14:31;;;;;;;19.30;10.32;;;;;;;;;;5072658;28;20028;-80
2023/06/14 01:17:00;;;;;;;19.85;11.88;;;;;;;;;;5078979;28;20062;-77
2023/06/14 01:19:25;;;;;;;20.60;12.20;;;;;;;;;;5082796;28;20039;-78
2023/06/14 01:21:51;;;;;;;20.00;12.25;;;;;;;;;;5081371;28;20107;-77
2023/06/14 01:24:19;;;;;;;31.50;12.27;;;;;;;;;;5073943;28;20443;-78
2023/06/14 01:26:46;;;;;;;61.47;14.75;;;;;;;;;;5077994;28;20438;-79
2023/06/14 01:29:16;;;;;;;60.90;13.48;;;;;;;;;;5082489;28;20108;-77
2023/06/14 01:31:42;;;;;;;38.75;13.82;;;;;;;;;;5082316;28;20031;-77
2023/06/14 01:34:08;;;;;;;18.17;11.77;;;;;;;;;;5081529;28;20360;-77
2023/06/14 01:36:35;;;;;;;21.38;12.85;;;;;;;;;;5082118;28;20023;-79
2023/06/14 01:39:01;;;;;;;22.92;13.40;;;;;;;;;;5081326;28;20032;-80
2023/06/14 01:41:26;;;;;;;29.30;13.68;;;;;;;;;;5080486;28;20737;-80
2023/06/14 01:43:52;;;;;;;25.95;12.82;;;;;;;;;;5076402;28;20036;-77
2023/06/14 01:46:19;;;;;;;21.63;12.35;;;;;;;;;;5077884;28;20036;-77
2023/06/14 01:48:44;;;;;;;18.33;12.40;;;;;;;;;;5079543;28;20025;-82
2023/06/14 01:51:09;;;;;;;23.05;12.82;;;;;;;;;;5082627;28;20028;-78
2023/06/14 01:53:36;;;;;;;24.27;12.38;;;;;;;;;;5077907;28;20024;-77
2023/06/14 01:56:01;;;;;;;14.73;12.30;;;;;;;;;;5074499;28;20055;-77
2023/06/14 01:58:27;;;;;;;21.10;11.20;;;;;;;;;;5078907;28;20117;-77
2023/06/14 02:00:55;;;;;;;15.07;11.27;;;;;;;;;;5072275;28;20036;-77
2023/06/14 02:03:20;;;;;;;32.58;12.80;;;;;;;;;;5079782;28;20450;-82
2023/06/14 02:05:45;;;;;;;22.83;11.27;;;;;;;;;;5078932;28;20104;-79
2023/06/14 02:08:11;;;;;;;44.28;13.95;;;;;;;;;;5079336;28;20146;-79
2023/06/14 02:10:36;;;;;;;35.35;11.95;;;;;;;;;;5069699;28;21222;-77
2023/06/14 02:13:02;;;;;;;173.63;19.13;;;;;;;;;;5079709;28;20772;-77
2023/06/14 02:15:33;;;;;;;11.90;9.25;;;;;;;;;;5080471;28;20028;-77
2023/06/14 02:17:59;;;;;;;22.02;9.70;;;;;;;;;;5079143;28;20028;-76
2023/06/14 02:20:24;;;;;;;13.95;8.10;;;;;;;;;;5069646;28;20025;-76
2023/06/14 02:22:49;;;;;;;10.30;9.15;;;;;;;;;;5082098;28;20028;-79
2023/06/14 02:25:15;;;;;;;25.85;9.93;;;;;;;;;;5066572;28;20784;-79
2023/06/14 02:27:40;;;;;;;18.70;9.95;;;;;;;;;;5075395;28;20454;-80
2023/06/14 02:30:06;;;;;;;24.23;10.43;;;;;;;;;;5074202;28;20033;-79
2023/06/14 02:32:31;;;;;;;10.93;9.75;;;;;;;;;;5082411;28;20288;-80
2023/06/14 02:34:57;;;;;;;33.50;11.57;;;;;;;;;;5076514;28;20031;-77
2023/06/14 02:37:22;;;;;;;21.08;9.88;;;;;;;;;;5065540;28;20036;-78
2023/06/14 02:39:48;;;;;;;30.33;9.77;;;;;;;;;;5076539;28;20111;-78
2023/06/14 02:42:13;;;;;;;24.85;8.90;;;;;;;;;;5080239;28;20042;-78
2023/06/14 02:44:38;;;;;;;36.50;10.73;;;;;;;;;;5081045;28;20019;-77
2023/06/14 02:47:04;;;;;;;25.45;9.18;;;;;;;;;;5081669;28;20032;-77
2023/06/14 02:49:30;;;;;;;34.72;10.10;;;;;;;;;;5081491;28;20028;-77
2023/06/14 02:51:55;;;;;;;43.90;11.30;;;;;;;;;;5075061;28;20058;-79
2023/06/14 02:54:21;;;;;;;21.52;9.88;;;;;;;;;;5074510;28;20024;-77
2023/06/14 02:56:46;;;;;;;19.25;9.13;;;;;;;;;;5077482;28;20039;-77
2023/06/14 02:59:13;;;;;;;16.50;8.60;;;;;;;;;;5071861;28;20109;-78
2023/06/14 03:01:40;;;;;;;38.53;11.15;;;;;;;;;;5081775;28;20039;-78
2023/06/14 03:04:06;;;;;;;41.53;9.60;;;;;;;;;;5081687;28;20030;-76
2023/06/14 03:06:31;;;;;;;14.02;9.25;;;;;;;;;;5080794;28;20378;-77
2023/06/14 03:09:15;;;;;;;38.05;11.20;;;;;;;;;;5081921;28;20023;-76
2023/06/14 03:11:41;;;;;;;14.13;9.32;;;;;;;;;;5085358;28;20023;-78
2023/06/14 03:14:06;;;;;;;11.90;9.65;;;;;;;;;;5085904;28;20027;-79
2023/06/14 03:16:32;;;;;;;13.57;9.65;;;;;;;;;;5084799;28;20036;-80
2023/06/14 03:18:57;;;;;;;39.70;12.95;;;;;;;;;;5072014;28;20072;-81
2023/06/14 03:21:22;;;;;;;26.88;12.18;;;;;;;;;;5063724;28;20036;-79
2023/06/14 03:23:48;;;;;;;21.13;11.95;;;;;;;;;;5061613;28;20028;-77
2023/06/14 03:26:14;;;;;;;86.35;15.10;;;;;;;;;;5060544;28;20105;-75
2023/06/14 03:28:43;;;;;;;18.38;11.70;;;;;;;;;;5062275;28;20042;-75
2023/06/14 03:31:08;;;;;;;25.02;11.68;;;;;;;;;;5070068;28;20111;-82
2023/06/14 03:33:34;;;;;;;18.65;11.70;;;;;;;;;;5063870;28;20088;-76
2023/06/14 03:35:59;;;;;;;26.55;11.50;;;;;;;;;;5063733;28;20098;-77
2023/06/14 03:38:25;;;;;;;19.25;12.02;;;;;;;;;;5063669;28;20028;-75
2023/06/14 03:40:50;;;;;;;15.95;11.68;;;;;;;;;;5061149;28;20031;-77
2023/06/14 03:43:15;;;;;;;17.70;11.52;;;;;;;;;;5065100;28;20340;-76
2023/06/14 03:45:41;;;;;;;17.08;11.07;;;;;;;;;;5063669;28;20016;-76
2023/06/14 03:48:08;;;;;;;18.88;10.18;;;;;;;;;;5064605;28;20044;-80
2023/06/14 03:50:34;;;;;;;16.75;10.23;;;;;;;;;;5062956;28;20767;-79
2023/06/14 03:53:01;;;;;;;15.73;10.10;;;;;;;;;;5063464;28;20040;-76
2023/06/14 03:55:27;;;;;;;47.95;12.02;;;;;;;;;;5065084;28;20031;-80
2023/06/14 03:57:52;;;;;;;27.95;11.10;;;;;;;;;;5076209;28;20406;-78
2023/06/14 04:00:18;;;;;;;12.65;10.95;;;;;;;;;;5064279;28;20039;-81
2023/06/14 04:02:46;;;;;;;26.63;10.95;;;;;;;;;;5066461;28;20066;-78
2023/06/14 04:05:12;;;;;;;18.60;10.15;;;;;;;;;;5060567;28;20056;-77
2023/06/14 04:07:39;;;;;;;14.65;10.70;;;;;;;;;;5069201;28;20024;-76
2023/06/14 04:10:05;;;;;;;15.07;10.48;;;;;;;;;;5083186;28;20034;-77
2023/06/14 04:12:30;;;;;;;17.00;10.45;;;;;;;;;;5080643;28;20040;-78
2023/06/14 04:14:56;;;;;;;15.23;11.10;;;;;;;;;;5062886;28;20028;-77
2023/06/14 04:17:21;;;;;;;12.82;9.98;;;;;;;;;;5060222;28;20032;-81
2023/06/14 04:19:47;;;;;;;11.10;9.35;;;;;;;;;;5061830;28;20059;-77
2023/06/14 04:22:12;;;;;;;16.90;11.13;;;;;;;;;;5061877;28;20043;-77
2023/06/14 04:24:38;;;;;;;12.80;9.80;;;;;;;;;;5062437;28;20036;-78
2023/06/14 04:27:03;;;;;;;12.80;10.93;;;;;;;;;;5067499;28;20127;-80
2023/06/14 04:29:29;;;;;;;13.85;10.20;;;;;;;;;;5081142;28;20119;-77
2023/06/14 04:31:58;;;;;;;14.98;10.30;;;;;;;;;;5082747;28;20111;-76
2023/06/14 04:34:23;;;;;;;12.13;10.00;;;;;;;;;;5084441;28;20461;-77
2023/06/14 04:36:49;;;;;;;14.85;10.13;;;;;;;;;;5082316;28;20036;-78
2023/06/14 04:39:23;;;;;;;11.65;9.80;;;;;;;;;;5082176;28;20085;-76
2023/06/14 04:41:52;;;;;;;12.75;11.23;;;;;;;;;;5077293;28;20054;-76
2023/06/14 04:44:19;;;;;;;17.97;11.63;;;;;;;;;;5066763;28;20024;-78
2023/06/14 04:46:47;;;;;;;11.35;9.98;;;;;;;;;;5070169;28;20036;-77
2023/06/14 04:49:15;;;;;;;14.27;10.57;;;;;;;;;;5069131;28;20144;-79
2023/06/14 04:51:41;;;;;;;11.00;9.75;;;;;;;;;;5069786;28;20020;-80
2023/06/14 04:54:09;;;;;;;9.85;8.90;;;;;;;;;;5083563;28;20038;-76
2023/06/14 04:56:37;;;;;;;11.50;10.07;;;;;;;;;;5081668;28;20032;-80
2023/06/14 04:59:04;;;;;;;10.68;9.60;;;;;;;;;;5081063;28;20052;-77
2023/06/14 05:01:29;;;;;;;11.60;9.68;;;;;;;;;;5081595;28;20025;-77
2023/06/14 05:03:55;;;;;;;11.15;10.05;;;;;;;;;;5081312;28;20332;-78
2023/06/14 05:06:21;;;;;;;12.50;10.77;;;;;;;;;;5081501;28;20028;-82
2023/06/14 05:08:46;;;;;;;11.43;9.65;;;;;;;;;;5081312;28;20111;-79
2023/06/14 05:11:11;;;;;;;8.70;7.88;;;;;;;;;;5082892;28;20471;-76
2023/06/14 05:13:37;;;;;;;9.50;8.68;;;;;;;;;;5069657;28;20024;-78
2023/06/14 05:16:03;;;;;;;9.15;8.35;;;;;;;;;;5070725;28;20039;-79
2023/06/14 05:18:28;;;;;;;9.60;8.07;;;;;;;;;;5081999;28;20028;-76
2023/06/14 05:20:54;;;;;;;7.60;6.82;;;;;;;;;;5083116;28;20055;-77
2023/06/14 05:23:19;;;;;;;7.55;6.75;;;;;;;;;;5081776;28;20028;-80
2023/06/14 05:25:44;;;;;;;7.10;6.47;;;;;;;;;;5081557;28;20082;-79
2023/06/14 05:28:10;;;;;;;8.57;7.63;;;;;;;;;;5081234;28;20061;-81
2023/06/14 05:30:37;;;;;;;8.40;7.60;;;;;;;;;;5078202;28;20366;-81
2023/06/14 05:33:03;;;;;;;12.30;8.80;;;;;;;;;;5082209;28;20015;-77
2023/06/14 05:35:29;;;;;;;19.63;17.10;;;;;;;;;;5082242;28;20028;-79
2023/06/14 05:37:54;;;;;;;11.98;10.02;;;;;;;;;;5076068;28;20035;-79
2023/06/14 05:40:19;;;;;;;14.55;9.45;;;;;;;;;;5082008;28;20028;-78
2023/06/14 05:42:45;;;;;;;13.13;9.05;;;;;;;;;;5080211;28;20043;-77
2023/06/14 05:45:10;;;;;;;9.18;8.43;;;;;;;;;;5080915;28;20028;-78
2023/06/14 05:47:36;;;;;;;9.60;8.25;;;;;;;;;;5080399;28;20111;-78
2023/06/14 05:50:01;;;;;;;10.85;9.35;;;;;;;;;;5079196;28;20031;-78
2023/06/14 05:52:27;;;;;;;11.00;9.27;;;;;;;;;;5081028;28;20038;-77
2023/06/14 05:54:53;;;;;;;13.00;9.35;;;;;;;;;;5081092;28;20065;-76
2023/06/14 05:57:18;;;;;;;10.93;9.07;;;;;;;;;;5079845;28;20040;-78
2023/06/14 05:59:44;;;;;;;9.23;8.43;;;;;;;;;;5079534;28;20027;-75
2023/06/14 06:02:09;;;;;;;8.90;8.00;;;;;;;;;;5081610;28;20334;-80
2023/06/14 06:04:34;;;;;;;8.40;7.65;;;;;;;;;;5072634;28;20426;-78
2023/06/14 06:07:00;;;;;;;8.90;8.07;;;;;;;;;;5067597;28;20086;-79
2023/06/14 06:09:25;;;;;;;9.68;8.77;;;;;;;;;;5081774;28;20027;-77
2023/06/14 06:11:51;;;;;;;8.98;8.18;;;;;;;;;;5081304;28;20103;-77
2023/06/14 06:14:16;;;;;;;9.15;8.23;;;;;;;;;;5080380;28;20446;-77
2023/06/14 06:16:41;;;;;;;8.63;7.78;;;;;;;;;;5081773;28;20032;-80
2023/06/14 06:19:07;;;;;;;8.90;8.00;;;;;;;;;;5080211;28;20031;-76
2023/06/14 06:21:32;;;;;;;10.00;8.45;;;;;;;;;;5081896;28;20427;-79
2023/06/14 06:23:58;;;;;;;10.23;9.10;;;;;;;;;;5079398;28;20487;-78
2023/06/14 06:26:23;;;;;;;12.80;8.65;;;;;;;;;;5079321;28;20032;-79
2023/06/14 06:28:48;;;;;;;12.23;10.90;;;;;;;;;;5079837;28;20032;-78
2023/06/14 06:31:15;;;;;;;9.55;8.68;;;;;;;;;;5080254;28;20020;-82
2023/06/14 06:33:40;;;;;;;10.13;9.10;;;;;;;;;;5080612;28;20020;-78
2023/06/14 06:36:05;;;;;;;9.65;8.52;;;;;;;;;;5080079;28;20031;-78
2023/06/14 06:38:31;;;;;;;8.60;7.75;;;;;;;;;;5080507;28;20292;-80
2023/06/14 06:40:56;;;;;;;8.55;7.78;;;;;;;;;;5080791;28;20399;-79
2023/06/14 06:43:21;;;;;;;7.88;7.22;;;;;;;;;;5080832;28;20109;-80
2023/06/14 06:45:47;;;;;;;7.97;7.18;;;;;;;;;;5080102;28;20028;-80
2023/06/14 06:48:12;;;;;;;8.60;7.28;;;;;;;;;;5078906;28;20416;-78
2023/06/14 06:50:38;;;;;;;6.60;5.97;;;;;;;;;;5079569;28;20067;-79
2023/06/14 06:53:03;;;;;;;6.95;6.25;;;;;;;;;;5081871;28;20028;-78
2023/06/14 06:55:29;;;;;;;6.50;5.97;;;;;;;;;;5080856;28;20428;-79
2023/06/14 06:57:55;;;;;;;7.35;6.75;;;;;;;;;;5079971;28;20052;-79
2023/06/14 07:00:21;;;;;;;7.47;6.45;;;;;;;;;;5080337;28;20383;-77
2023/06/14 07:02:46;;;;;;;6.60;6.00;;;;;;;;;;5081330;28;20143;-79
2023/06/14 07:05:11;;;;;;;7.45;6.75;;;;;;;;;;5079751;28;20023;-79
2023/06/14 07:07:37;;;;;;;7.30;6.60;;;;;;;;;;5080537;28;20484;-82
2023/06/14 07:10:04;;;;;;;6.55;6.05;;;;;;;;;;5079747;28;20034;-79
2023/06/14 07:12:30;;;;;;;6.32;5.82;;;;;;;;;;5079624;28;20556;-79
2023/06/14 07:14:55;;;;;;;5.47;5.05;;;;;;;;;;5079741;28;20115;-77
2023/06/14 07:17:21;;;;;;;5.78;5.28;;;;;;;;;;5081153;28;20138;-81
2023/06/14 07:19:46;;;;;;;5.53;5.10;;;;;;;;;;5079794;28;20115;-78
2023/06/14 07:22:11;;;;;;;5.63;5.13;;;;;;;;;;5079534;28;20099;-79
2023/06/14 07:24:37;;;;;;;5.20;4.80;;;;;;;;;;5079755;28;20024;-78
2023/06/14 07:27:04;;;;;;;5.18;4.68;;;;;;;;;;5078270;28;20028;-79
2023/06/14 07:29:29;;;;;;;5.45;4.50;;;;;;;;;;5080100;28;20031;-75
2023/06/14 07:31:54;;;;;;;6.15;5.60;;;;;;;;;;5080102;28;20025;-76
2023/06/14 07:34:20;;;;;;;6.75;5.15;;;;;;;;;;5079856;28;20390;-79
2023/06/14 07:36:46;;;;;;;5.57;5.07;;;;;;;;;;5079087;28;20435;-78
2023/06/14 07:39:11;;;;;;;5.10;4.70;;;;;;;;;;5080124;28;20335;-78
2023/06/14 07:41:37;;;;;;;5.25;4.82;;;;;;;;;;5079911;28;20024;-81
2023/06/14 07:44:02;;;;;;;4.93;4.55;;;;;;;;;;5078896;28;20071;-80
2023/06/14 07:46:27;;;;;;;5.15;4.75;;;;;;;;;;5078234;28;20110;-78
2023/06/14 07:48:53;;;;;;;6.35;5.85;;;;;;;;;;5081406;28;20047;-78
2023/06/14 07:51:18;;;;;;;5.65;5.25;;;;;;;;;;5078079;28;20032;-78
2023/06/14 07:53:44;;;;;;;4.82;4.43;;;;;;;;;;5079815;28;20465;-76
2023/06/14 07:56:09;;;;;;;4.97;4.57;;;;;;;;;;5083333;28;20020;-77
2023/06/14 07:58:34;;;;;;;8.40;4.78;;;;;;;;;;5083750;28;20044;-78
2023/06/14 08:01:01;;;;;;;5.60;5.10;;;;;;;;;;5084363;28;20024;-81
2023/06/14 08:03:27;;;;;;;5.82;5.22;;;;;;;;;;5082789;28;20024;-78
2023/06/14 08:05:52;;;;;;;5.07;4.68;;;;;;;;;;5083230;28;20024;-78
2023/06/14 08:08:17;;;;;;;5.55;5.05;;;;;;;;;;5083818;28;20415;-78
2023/06/14 08:10:44;;;;;;;4.72;4.35;;;;;;;;;;5082880;28;20462;-77
2023/06/14 08:13:09;;;;;;;5.43;4.57;;;;;;;;;;5083528;28;20066;-78
2023/06/14 08:15:35;;;;;;;4.50;4.10;;;;;;;;;;5083741;28;20035;-80
2023/06/14 08:18:01;;;;;;;4.45;4.03;;;;;;;;;;5083389;28;20545;-78
2023/06/14 08:20:26;;;;;;;4.30;4.00;;;;;;;;;;5081847;28;20020;-79
2023/06/14 08:22:56;;;;;;;4.93;4.28;;;;;;;;;;5082364;28;20496;-77
2023/06/14 08:25:21;;;;;;;4.55;4.15;;;;;;;;;;5082574;28;20031;-78
2023/06/14 08:27:47;;;;;;;4.18;3.88;;;;;;;;;;5084665;28;20048;-77
2023/06/14 08:30:12;;;;;;;4.18;3.88;;;;;;;;;;5083121;28;20577;-77
2023/06/14 08:32:38;;;;;;;4.65;4.25;;;;;;;;;;5082784;28;20024;-78
2023/06/14 08:35:04;;;;;;;4.47;4.07;;;;;;;;;;5082765;28;20090;-77
2023/06/14 08:37:30;;;;;;;4.20;3.90;;;;;;;;;;5084644;28;20426;-76
2023/06/14 08:39:56;;;;;;;4.68;3.83;;;;;;;;;;5083025;28;20603;-79
2023/06/14 08:42:23;;;;;;;4.57;4.18;;;;;;;;;;5083200;28;20396;-77
2023/06/14 08:44:49;;;;;;;4.00;3.70;;;;;;;;;;5081719;28;20024;-77
2023/06/14 08:47:15;;;;;;;3.65;3.35;;;;;;;;;;5082891;28;20032;-78
2023/06/14 08:49:45;;;;;;;3.40;3.13;;;;;;;;;;5082277;28;20016;-78
2023/06/14 08:52:12;;;;;;;4.10;3.50;;;;;;;;;;5082853;28;20365;-78
2023/06/14 08:54:43;;;;;;;4.40;3.78;;;;;;;;;;5082098;28;20036;-78
2023/06/14 08:57:12;;;;;;;4.15;3.75;;;;;;;;;;5082489;28;20034;-78
2023/06/14 08:59:43;;;;;;;3.50;3.20;;;;;;;;;;5083353;28;20035;-79
2023/06/14 09:02:12;;;;;;;3.53;3.22;;;;;;;;;;5081812;28;20027;-81
2023/06/14 09:04:39;;;;;;;;;;;;;;;;;;5082881;28;20043;-77
2023/06/14 09:07:06;;;;;;;3.38;3.10;;;;;;;;;;5082307;28;20863;-78
2023/06/14 09:09:32;;;;;;;3.55;3.17;;;;;;;;;;5082015;28;20438;-84
2023/06/14 09:11:57;;;;;;;2.50;2.40;;;;;;;;;;5080199;28;20016;-78
2023/06/14 09:14:25;;;;;;;3.58;3.25;;;;;;;;;;5082796;28;20028;-79
2023/06/14 09:16:54;;;;;;;3.55;3.35;;;;;;;;;;5081285;28;20125;-79
2023/06/14 09:19:23;;;;;;;5.18;3.75;;;;;;;;;;5082781;28;20051;-76
2023/06/14 09:21:49;;;;;;;4.07;3.33;;;;;;;;;;5081197;28;20447;-78
2023/06/14 09:24:14;;;;;;;3.25;3.05;;;;;;;;;;5081217;28;20027;-78
2023/06/14 09:26:40;;;;;;;4.15;3.78;;;;;;;;;;5081395;28;20031;-83
2023/06/14 09:29:06;;;;;;;3.80;3.50;;;;;;;;;;5082935;28;20354;-80
2023/06/14 09:31:32;;;;;;;4.15;3.85;;;;;;;;;;5082491;28;20033;-77
2023/06/14 09:33:58;;;;;;;3.95;3.65;;;;;;;;;;5081717;28;20024;-76
2023/06/14 09:36:24;;;;;;;3.70;3.40;;;;;;;;;;5080066;28;20096;-78
2023/06/14 09:38:57;;;;;;;3.10;2.90;;;;;;;;;;5080008;28;20020;-81
2023/06/14 09:41:33;;;;;;;3.42;3.22;;;;;;;;;;5079673;28;20020;-78
2023/06/14 09:44:02;;;;;;;3.85;3.55;;;;;;;;;;5081218;28;20041;-79
2023/06/14 09:46:29;;;;;;;3.70;3.40;;;;;;;;;;5081630;28;20530;-81
2023/06/14 09:48:54;;;;;;;4.20;3.90;;;;;;;;;;5081255;28;20030;-78
2023/06/14 09:51:22;;;;;;;4.47;4.18;;;;;;;;;;5081277;28;20024;-79
2023/06/14 09:53:48;;;;;;;4.07;3.63;;;;;;;;;;5081159;28;20085;-78
2023/06/14 09:56:16;;;;;;;4.60;4.07;;;;;;;;;;5080164;28;20478;-78
2023/06/14 09:58:41;;;;;;;4.45;4.00;;;;;;;;;;5081226;28;20143;-77
2023/06/14 10:01:08;;;;;;;4.50;4.10;;;;;;;;;;5080918;28;20062;-76
2023/06/14 10:03:34;;;;;;;4.38;4.05;;;;;;;;;;5082581;28;20056;-80
2023/06/14 10:06:02;;;;;;;4.10;3.80;;;;;;;;;;5081465;28;20053;-81
2023/06/14 10:08:30;;;;;;;3.87;3.57;;;;;;;;;;5080585;28;20032;-78
2023/06/14 10:10:56;;;;;;;3.88;3.58;;;;;;;;;;5077843;28;20473;-82
2023/06/14 10:13:21;;;;;;;3.83;3.50;;;;;;;;;;5080280;28;20020;-79
2023/06/14 10:15:53;;;;;;;3.92;3.63;;;;;;;;;;5079203;28;20115;-76
2023/06/14 10:18:38;;;;;;;3.17;2.88;;;;;;;;;;5081810;28;20056;-79
2023/06/14 10:21:13;;;;;;;4.43;4.00;;;;;;;;;;5081036;28;20028;-76
2023/06/14 10:23:41;;;;;;;8.93;3.70;;;;;;;;;;5079718;28;20099;-81
2023/06/14 10:26:07;;;;;;;3.53;3.30;;;;;;;;;;5079971;28;20107;-82
2023/06/14 10:28:33;;;;;;;4.00;3.70;;;;;;;;;;5076398;28;20122;-78
2023/06/14 10:31:03;;;;;;;4.03;3.67;;;;;;;;;;5078637;28;20035;-78
2023/06/14 10:33:29;;;;;;;4.35;3.88;;;;;;;;;;5079006;28;20024;-77
2023/06/14 10:36:07;;;;;;;5.97;3.17;;;;;;;;;;5081267;28;20081;-77
2023/06/14 10:38:34;;;;;;;4.13;3.72;;;;;;;;;;5078564;28;20359;-75
2023/06/14 10:41:00;;;;;;;4.05;3.65;;;;;;;;;;5078882;28;20112;-82
2023/06/14 10:43:25;;;;;;;5.32;4.28;;;;;;;;;;5079960;28;20035;-79
2023/06/14 10:46:09;;;;;;;4.25;3.88;;;;;;;;;;5078884;28;20378;-78
2023/06/14 10:48:40;;;;;;;3.90;3.63;;;;;;;;;;5079302;28;20429;-80
2023/06/14 10:51:05;;;;;;;3.95;3.65;;;;;;;;;;5077884;28;20052;-78
2023/06/14 10:53:39;;;;;;;3.53;3.33;;;;;;;;;;5076815;28;20024;-79
2023/06/14 10:56:07;;;;;;;4.35;4.05;;;;;;;;;;5078364;28;20032;-84
2023/06/14 10:58:33;;;;;;;4.07;3.77;;;;;;;;;;5080331;28;20622;-76
2023/06/14 11:00:58;;;;;;;4.60;4.20;;;;;;;;;;5077673;28;20095;-75
2023/06/14 11:03:40;;;;;;;4.10;3.70;;;;;;;;;;5076616;28;20024;-82
2023/06/14 11:06:13;;;;;;;4.28;3.97;;;;;;;;;;5077642;28;20150;-79
2023/06/14 11:08:57;;;;;;;4.65;4.15;;;;;;;;;;5080149;28;20032;-79
2023/06/14 11:11:25;;;;;;;3.70;3.50;;;;;;;;;;5076423;28;20047;-80
2023/06/14 11:13:51;;;;;;;4.72;4.22;;;;;;;;;;5078110;28;20050;-80
2023/06/14 11:16:17;;;;;;;5.22;4.40;;;;;;;;;;5077813;28;20428;-81
2023/06/14 11:18:43;;;;;;;4.43;4.10;;;;;;;;;;5077839;28;20039;-81
2023/06/14 11:21:09;;;;;;;4.78;4.38;;;;;;;;;;5078201;28;20028;-83
2023/06/14 11:23:37;;;;;;;4.65;4.28;;;;;;;;;;5079570;28;20103;-77
2023/06/14 11:26:04;;;;;;;4.67;4.27;;;;;;;;;;5080148;28;20024;-77
2023/06/14 11:28:39;;;;;;;4.65;4.25;;;;;;;;;;5079238;28;20843;-76
2023/06/14 11:31:05;;;;;;;5.65;3.92;;;;;;;;;;5082101;28;20047;-81
2023/06/14 11:33:30;;;;;;;4.45;4.05;;;;;;;;;;5082516;28;20095;-77
2023/06/14 11:35:56;;;;;;;4.55;4.15;;;;;;;;;;5081794;28;20032;-78
2023/06/14 11:38:21;;;;;;;6.63;3.88;;;;;;;;;;5082978;28;20036;-79
2023/06/14 11:40:46;;;;;;;4.75;4.28;;;;;;;;;;5081437;28;20054;-78
2023/06/14 11:43:13;;;;;;;4.50;4.10;;;;;;;;;;5083251;28;20103;-77
2023/06/14 11:45:39;;;;;;;4.40;3.97;;;;;;;;;;5079041;28;20024;-79
2023/06/14 11:48:04;;;;;;;5.97;4.20;;;;;;;;;;5082806;28;20037;-84
2023/06/14 11:50:30;;;;;;;5.82;3.85;;;;;;;;;;5084946;28;20024;-85
2023/06/14 11:52:56;;;;;;;6.00;4.20;;;;;;;;;;5083808;28;20111;-81
2023/06/14 11:55:24;;;;;;;4.70;4.05;;;;;;;;;;5080403;28;20111;-81
2023/06/14 11:57:50;;;;;;;4.25;3.95;;;;;;;;;;5080247;28;20489;-84
2023/06/14 12:00:16;;;;;;;4.30;4.00;;;;;;;;;;5080718;28;20028;-79
2023/06/14 12:02:42;;;;;;;5.47;4.22;;;;;;;;;;5080942;28;20378;-76
2023/06/14 12:05:10;;;;;;;6.70;3.90;;;;;;;;;;5081148;28;20105;-78
2023/06/14 12:07:41;;;;;;;4.57;4.05;;;;;;;;;;5083483;28;20504;-79
2023/06/14 12:10:08;;;;;;;3.95;3.65;;;;;;;;;;5082810;28;20036;-80
2023/06/14 12:12:37;;;;;;;4.40;3.45;;;;;;;;;;5083833;28;20035;-78
2023/06/14 12:15:03;;;;;;;4.40;4.03;;;;;;;;;;5080384;28;20032;-80
2023/06/14 12:17:32;;;;;;;5.70;3.63;;;;;;;;;;5081825;28;20089;-81
2023/06/14 12:19:57;;;;;;;4.28;3.85;;;;;;;;;;5082155;28;20134;-79
2023/06/14 12:22:22;;;;;;;4.07;3.78;;;;;;;;;;5082044;28;20114;-81
2023/06/14 12:24:48;;;;;;;4.22;3.80;;;;;;;;;;5083065;28;20032;-76
2023/06/14 12:27:15;;;;;;;4.93;4.45;;;;;;;;;;5081683;28;20048;-79
2023/06/14 12:29:44;;;;;;;6.05;4.22;;;;;;;;;;5081665;28;20062;-83
2023/06/14 12:32:09;;;;;;;3.97;3.67;;;;;;;;;;5080260;28;20036;-83
2023/06/14 12:34:35;;;;;;;3.97;3.67;;;;;;;;;;5078813;28;20024;-78
2023/06/14 12:37:00;;;;;;;3.75;3.15;;;;;;;;;;5081900;28;20039;-84
2023/06/14 12:39:26;;;;;;;6.15;3.50;;;;;;;;;;5080325;28;20028;-82
2023/06/14 12:41:51;;;;;;;4.28;3.95;;;;;;;;;;5080267;28;20032;-82
2023/06/14 12:44:16;;;;;;;3.42;3.22;;;;;;;;;;5083178;28;20060;-79
2023/06/14 12:46:43;;;;;;;3.70;3.40;;;;;;;;;;5082008;28;20135;-80
2023/06/14 12:49:09;;;;;;;4.35;3.95;;;;;;;;;;5082283;28;20032;-77
2023/06/14 12:51:35;;;;;;;5.60;3.60;;;;;;;;;;5079961;28;20418;-78
2023/06/14 12:54:00;;;;;;;3.70;3.40;;;;;;;;;;5082703;28;20028;-79
2023/06/14 12:56:26;;;;;;;4.43;2.97;;;;;;;;;;5078799;28;20024;-84
2023/06/14 12:58:51;;;;;;;3.15;2.95;;;;;;;;;;5081238;28;20052;-79
2023/06/14 13:01:17;;;;;;;3.47;3.25;;;;;;;;;;5082730;28;20067;-83
2023/06/14 13:03:42;;;;;;;3.50;3.20;;;;;;;;;;5081175;28;20446;-79
2023/06/14 13:06:08;;;;;;;3.85;3.55;;;;;;;;;;5080360;28;20680;-78
2023/06/14 13:08:33;;;;;;;3.20;3.00;;;;;;;;;;5082155;28;20048;-78
2023/06/14 13:10:58;;;;;;;3.58;3.28;;;;;;;;;;5081997;28;20039;-80
2023/06/14 13:13:24;;;;;;;3.53;3.03;;;;;;;;;;5078770;28;20012;-77
2023/06/14 13:15:50;;;;;;;3.42;3.13;;;;;;;;;;5080810;28;20032;-77
2023/06/14 13:18:16;;;;;;;4.13;3.22;;;;;;;;;;5081539;28;20032;-78
2023/06/14 13:20:41;;;;;;;6.68;3.78;;;;;;;;;;5081147;28;20039;-82
2023/06/14 13:23:07;;;;;;;4.57;3.30;;;;;;;;;;5074018;28;20038;-79
2023/06/14 13:25:35;;;;;;;6.20;3.53;;;;;;;;;;5082009;28;20039;-77
2023/06/14 13:28:00;;;;;;;3.88;3.58;;;;;;;;;;5080238;28;20058;-84
2023/06/14 13:30:26;;;;;;;4.63;3.97;;;;;;;;;;5081865;28;20023;-79
2023/06/14 13:32:51;;;;;;;4.22;3.92;;;;;;;;;;5083093;28;20039;-82
2023/06/14 13:35:17;;;;;;;5.65;4.35;;;;;;;;;;5072616;28;20028;-78
2023/06/14 13:37:43;;;;;;;3.95;3.65;;;;;;;;;;5077269;28;20035;-77
2023/06/14 13:40:08;;;;;;;4.45;4.05;;;;;;;;;;5079700;28;20032;-80
2023/06/14 13:42:34;;;;;;;4.47;4.07;;;;;;;;;;5081020;28;20115;-79
2023/06/14 13:44:59;;;;;;;4.40;4.00;;;;;;;;;;5082680;28;21269;-87
2023/06/14 13:47:24;;;;;;;4.65;3.65;;;;;;;;;;5078893;28;20082;-81
2023/06/14 13:49:50;;;;;;;5.40;4.57;;;;;;;;;;5080176;28;20040;-79
2023/06/14 13:52:15;;;;;;;5.18;4.68;;;;;;;;;;5076250;28;20028;-89
2023/06/14 13:54:42;;;;;;;5.20;4.80;;;;;;;;;;5075605;28;20074;-82
2023/06/14 13:57:07;;;;;;;5.60;4.78;;;;;;;;;;5082369;28;20031;-80
2023/06/14 13:59:33;;;;;;;5.03;4.53;;;;;;;;;;5077364;28;20020;-79
2023/06/14 14:01:58;;;;;;;5.20;4.70;;;;;;;;;;5079002;28;20032;-79
2023/06/14 14:04:24;;;;;;;5.18;4.68;;;;;;;;;;5080656;28;20020;-79
2023/06/14 14:06:49;;;;;;;4.72;4.15;;;;;;;;;;5078057;28;20036;-81
2023/06/14 14:09:14;;;;;;;4.72;4.32;;;;;;;;;;5072333;28;20370;-79
2023/06/14 14:11:42;;;;;;;5.30;4.68;;;;;;;;;;5068508;28;20020;-83
2023/06/14 14:14:08;;;;;;;5.13;4.72;;;;;;;;;;5075683;28;20024;-79
2023/06/14 14:16:34;;;;;;;9.07;4.72;;;;;;;;;;5080497;28;20032;-78
2023/06/14 14:19:00;;;;;;;4.72;4.28;;;;;;;;;;5078956;28;20036;-87
2023/06/14 14:21:25;;;;;;;4.75;4.45;;;;;;;;;;5071543;28;20019;-81
2023/06/14 14:23:51;;;;;;;4.95;4.35;;;;;;;;;;5075996;28;20020;-79
2023/06/14 14:26:16;;;;;;;4.85;4.45;;;;;;;;;;5080757;28;20027;-77
2023/06/14 14:28:41;;;;;;;4.45;4.15;;;;;;;;;;5078115;28;20115;-78
2023/06/14 14:31:07;;;;;;;4.78;4.40;;;;;;;;;;5075989;28;20450;-77